WetterOnline ( https://www.wetteronline.de )

Wetter aktuell Diekirch

Aktuelles Wetter: Trier/Petrisberg (273m)

6-stündlich | Neueste Meldungen
Ortszeit Temperatur Wetter
Sa, 21.05. 8:00 11.5° C wolkig
Sa, 21.05. 2:00 12.0° C leicht bewölkt
Fr, 20.05. 20:00 20.0° C bewölkt
Fr, 20.05. 14:00 24.2° C bewölkt
Fr, 20.05. 8:00 16.3° C leicht bewölkt
Fr, 20.05. 2:00 17.2° C wolkig
Do, 19.05. 20:00 20.6° C bewölkt
Do, 19.05. 14:00 27.6° C wolkig
Ortszeit Temperatur Wetter
Sa, 21.05. 12:00 16.8° C leicht bewölkt
Sa, 21.05. 11:50 16.8° C leicht bewölkt
Sa, 21.05. 11:40 15.8° C wolkig
Sa, 21.05. 11:30 15.4° C bewölkt
Sa, 21.05. 11:20 15.4° C bewölkt
Sa, 21.05. 11:10 15.5° C bewölkt
Sa, 21.05. 11:00 15.3° C bewölkt
Sa, 21.05. 10:30 15.7° C wolkig
Sa, 21.05. 10:00 14.4° C bewölkt
Sa, 21.05. 9:30 13.2° C bewölkt
Sa, 21.05. 9:00 12.5° C bewölkt
Ortszeit Relative Feuchte Sichtweite
Sa, 21.05. 8:00 84% 35 km
Sa, 21.05. 2:00 80% 50 km
Fr, 20.05. 20:00 80% 55 km
Fr, 20.05. 14:00 70% 35 km
Fr, 20.05. 8:00 93% 20 km
Fr, 20.05. 2:00 87% 45 km
Do, 19.05. 20:00 74% 45 km
Do, 19.05. 14:00 46% 45 km
Ortszeit Relative Feuchte Sichtweite
Sa, 21.05. 12:00 56% 50 km
Sa, 21.05. 11:50 56% -
Sa, 21.05. 11:40 57% -
Sa, 21.05. 11:30 61% >70 km
Sa, 21.05. 11:20 61% -
Sa, 21.05. 11:10 63% -
Sa, 21.05. 11:00 63% 40 km
Sa, 21.05. 10:30 68% 45 km
Sa, 21.05. 10:00 73% 35 km
Sa, 21.05. 9:30 76% 40 km
Sa, 21.05. 9:00 79% 55 km
Ortszeit Niederschlagsmenge Niederschlagsart
Sa, 21.05. 8:00 0.0 l/m2 in 12 Std. -
Sa, 21.05. 2:00 0.0 l/m2 in 6 Std. -
Fr, 20.05. 20:00 3 l/m2 in 12 Std. Regen
Fr, 20.05. 14:00 0.4 l/m2 in 6 Std. Regen
Fr, 20.05. 8:00 0.8 l/m2 in 12 Std. Regen
Fr, 20.05. 2:00 0.0 l/m2 in 6 Std. -
Do, 19.05. 20:00 1 l/m2 in 12 Std. Regen
Do, 19.05. 14:00 0.0 l/m2 in 6 Std. -
Ortszeit Niederschlagsmenge Niederschlagsart
Sa, 21.05. 12:00 0.0 l/m2 in 1 Std. -
Sa, 21.05. 11:50 keine Meldung -
Sa, 21.05. 11:40 keine Meldung -
Sa, 21.05. 11:30 0.0 l/m2 in 1 Std. -
Sa, 21.05. 11:20 keine Meldung -
Sa, 21.05. 11:10 keine Meldung -
Sa, 21.05. 11:00 0.0 l/m2 in 1 Std. -
Sa, 21.05. 10:30 0.0 l/m2 in 1 Std. -
Sa, 21.05. 10:00 0.0 l/m2 in 1 Std. -
Sa, 21.05. 9:30 0.0 l/m2 in 1 Std. -
Sa, 21.05. 9:00 0.0 l/m2 in 1 Std. -
Ortszeit Stärke Spitze Richtung
km/h Bft. km/h Grad Sektor
Sa, 21.05. 8:00 11 2 14 220° SW
Sa, 21.05. 2:00 11 2 50 240° SW
Fr, 20.05. 20:00 20 4 59 270° W
Fr, 20.05. 14:00 11 2 29 160° S
Fr, 20.05. 8:00 11 2 25 30° NO
Fr, 20.05. 2:00 11 2 25 40° NO
Do, 19.05. 20:00 13 3 59 40° NO
Do, 19.05. 14:00 18 3 32 200° S
Ortszeit Stärke Spitze Richtung
km/h Bft. km/h Grad Sektor
Sa, 21.05. 12:00 15 3 28 260° W
Sa, 21.05. 11:50 15 3 - 260° W
Sa, 21.05. 11:40 13 3 - 270° W
Sa, 21.05. 11:30 9 2 22 280° W
Sa, 21.05. 11:20 9 2 - 280° W
Sa, 21.05. 11:10 9 2 - 270° W
Sa, 21.05. 11:00 14 3 29 250° W
Sa, 21.05. 10:30 17 3 30 240° SW
Sa, 21.05. 10:00 13 3 22 240° SW
Sa, 21.05. 9:30 11 2 18 260° W
Sa, 21.05. 9:00 11 2 22 250° W
Ortszeit Untergrenze Bedeckung Gattung
total tief tief mittel hoch
Sa, 21.05. 8:00 840 m 7/8 3/8 - - -
Sa, 21.05. 2:00 660 m 3/8 3/8 - - -
Fr, 20.05. 20:00 1440 m 7/8 7/8 - - -
Fr, 20.05. 14:00 3300 m 7/8 7/8 - - -
Fr, 20.05. 8:00 3000 m 5/8 2/8 - - -
Fr, 20.05. 2:00 1500 m 7/8 1/8 - - -
Do, 19.05. 20:00 3000 m 7/8 7/8 - - -
Do, 19.05. 14:00 6900 m 8/8 8/8 - - -
Ortszeit Bedeckungsgrad in Achtel und Wolkenuntergrenze
Sa, 21.05. 12:00 1(930m) 4(9000m)
Sa, 21.05. 11:50 1(930m) 4(9000m)
Sa, 21.05. 11:40 5
Sa, 21.05. 11:30 6(810m) 7(1020m) 7(1230m)
Sa, 21.05. 11:20 6(810m) 7(1020m) 7(1230m)
Sa, 21.05. 11:10 7
Sa, 21.05. 11:00 6(780m) 7(1020m)
Sa, 21.05. 10:30 3(660m) 5(840m)
Sa, 21.05. 10:00 6(600m) 7(750m)
Sa, 21.05. 9:30 7(540m) 7(690m)
Sa, 21.05. 9:00 7(480m) 7(630m)
Ortszeit Luftdruck NN (hPa) Tendenz (hPa in 3 Std.)
Sa, 21.05. 8:00 1024 + 0,6
Sa, 21.05. 2:00 1023 + 1,9
Fr, 20.05. 20:00 1016 + 2,4
Fr, 20.05. 14:00 1016 - 2,8
Fr, 20.05. 8:00 1020 - 0,5
Fr, 20.05. 2:00 1021 + 0,2
Do, 19.05. 20:00 1020 + 2,5
Do, 19.05. 14:00 1018 - 0,2
Ortszeit Luftdruck NN (hPa) Tendenz (hPa in 3 Std.)
Sa, 21.05. 12:00 1023 - 0,3
Sa, 21.05. 11:50 1023 keine Meldung
Sa, 21.05. 11:40 1023 keine Meldung
Sa, 21.05. 11:30 1024 - 0,1
Sa, 21.05. 11:20 1024 keine Meldung
Sa, 21.05. 11:10 1024 keine Meldung
Sa, 21.05. 11:00 1024 0,0
Sa, 21.05. 10:30 1024 + 0,4
Sa, 21.05. 10:00 1024 + 0,6
Sa, 21.05. 9:30 1024 + 0,7
Sa, 21.05. 9:00 1024 + 0,5
Ortszeit Schneehöhe (cm)
Sa, 21.05. 8:00 0
Sa, 21.05. 2:00 0
Fr, 20.05. 20:00 0
Fr, 20.05. 14:00 0
Fr, 20.05. 8:00 0
Fr, 20.05. 2:00 0
Do, 19.05. 20:00 0
Do, 19.05. 14:00 0
Ortszeit Schneehöhe (cm)
Sa, 21.05. 12:00 0
Sa, 21.05. 11:50 0
Sa, 21.05. 11:40 0
Sa, 21.05. 11:30 0
Sa, 21.05. 11:20 0
Sa, 21.05. 11:10 0
Sa, 21.05. 11:00 0
Sa, 21.05. 10:30 0
Sa, 21.05. 10:00 0
Sa, 21.05. 9:30 0
Sa, 21.05. 9:00 0
Link zu dieser Seite / Seite empfehlen

Das Wetter in ...